Terminal Aerodrome Forecast
Issued by NWS Charleston, WV

Home | Current Version | Previous Version | Text Only | Print | Product List | Glossary On
Versions: 1 2 3 4 5 6 7 8 9 10 11 12 13 14 15 16 17 18 19 20 21 22 23 24 25 26 27 28 29 30
318
FTUS41 KRLX 240904 AAB
TAFCRW
TAF AMD
KCRW 240904Z 2409/2506 VRB03KT 1SM BR VV001
     FM241400 14005KT 4SM -RA BR OVC035
     FM241700 14005KT P6SM -RA OVC035
     FM242100 19009G18KT P6SM OVC035
     FM242200 19009G17KT P6SM OVC250
     FM250000 16004KT P6SM BKN250=

USA.gov is the U.S. government's official web portal to all federal, state and local government web resources and services.